Time,TemperatureF,DewpointF,PressureIn,WindDirection,WindDirectionDegrees,WindSpeedMPH,WindSpeedGustMPH,Humidity,HourlyPrecipIn,Conditions,Clouds,dailyrainin,SoftwareType,DateUTC
2013-02-01 00:07:00,46.2,31.4,29.99,SW,225,5.3,-999.0,56,-99.99,,,0.00,Acu-Link.com,2013-02-01 05:07:00,
2013-02-01 00:23:00,45.3,31.8,29.98,West,270,3.7,-999.0,59,-99.99,,,0.00,Acu-Link.com,2013-02-01 05:23:00,
2013-02-01 00:38:00,45.3,31.4,29.98,West,270,5.3,-999.0,58,-99.99,,,0.00,Acu-Link.com,2013-02-01 05:38:00,
2013-02-01 00:53:00,45.3,31.4,29.98,SW,225,2.7,-999.0,58,-99.99,,,0.00,Acu-Link.com,2013-02-01 05:53:00,
2013-02-01 01:09:00,45.0,32.0,29.98,West,270,4.7,-999.0,60,-99.99,,,0.00,Acu-Link.com,2013-02-01 06:09:00,
2013-02-01 01:24:00,44.8,30.9,29.99,West,270,3.7,-999.0,58,-99.99,,,0.00,Acu-Link.com,2013-02-01 06:24:00,
2013-02-01 01:40:00,45.0,31.1,29.99,SW,225,4.2,-999.0,58,-99.99,,,0.00,Acu-Link.com,2013-02-01 06:40:00,
2013-02-01 01:55:00,45.0,31.5,30.00,West,270,4.7,-999.0,59,-99.99,,,0.00,Acu-Link.com,2013-02-01 06:55:00,
2013-02-01 02:10:00,44.8,30.5,30.00,West,270,3.7,-999.0,57,-99.99,,,0.00,Acu-Link.com,2013-02-01 07:10:00,
2013-02-01 02:26:00,44.6,29.9,29.99,WSW,247,1.7,-999.0,56,-99.99,,,0.00,Acu-Link.com,2013-02-01 07:26:00,
2013-02-01 02:41:00,44.4,29.7,30.00,SSW,202,2.7,-999.0,56,-99.99,,,0.00,Acu-Link.com,2013-02-01 07:41:00,
2013-02-01 02:56:00,44.1,29.0,29.99,WSW,247,2.7,-999.0,55,-99.99,,,0.00,Acu-Link.com,2013-02-01 07:56:00,
2013-02-01 03:12:00,43.9,29.2,29.98,SW,225,1.7,-999.0,56,-99.99,,,0.00,Acu-Link.com,2013-02-01 08:12:00,
2013-02-01 03:27:00,43.5,30.5,29.99,West,270,3.2,-999.0,60,-99.99,,,0.00,Acu-Link.com,2013-02-01 08:27:00,
2013-02-01 03:43:00,43.5,30.5,29.99,West,270,2.2,-999.0,60,-99.99,,,0.00,Acu-Link.com,2013-02-01 08:43:00,
2013-02-01 03:58:00,43.2,31.5,29.99,SW,225,2.7,-999.0,63,-99.99,,,0.00,Acu-Link.com,2013-02-01 08:58:00,
2013-02-01 04:17:00,43.5,30.5,29.98,West,270,6.8,-999.0,60,-99.99,,,0.00,Acu-Link.com,2013-02-01 09:17:00,
2013-02-01 04:32:00,44.2,30.4,29.98,West,270,4.7,-999.0,58,-99.99,,,0.00,Acu-Link.com,2013-02-01 09:32:00,
2013-02-01 04:47:00,44.2,29.9,29.99,WSW,247,5.3,-999.0,57,-99.99,,,0.00,Acu-Link.com,2013-02-01 09:47:00,
2013-02-01 05:02:00,44.2,29.9,29.99,SW,225,4.7,-999.0,57,-99.99,,,0.00,Acu-Link.com,2013-02-01 10:02:00,
2013-02-01 05:17:00,44.6,29.4,29.99,West,270,3.2,-999.0,55,-99.99,,,0.00,Acu-Link.com,2013-02-01 10:17:00,
2013-02-01 05:33:00,44.6,29.9,29.98,WSW,247,4.2,-999.0,56,-99.99,,,0.00,Acu-Link.com,2013-02-01 10:33:00,
2013-02-01 05:48:00,44.2,29.9,29.98,SW,225,8.3,-999.0,57,-99.99,,,0.00,Acu-Link.com,2013-02-01 10:48:00,
2013-02-01 06:03:00,44.6,29.9,29.99,West,270,3.7,-999.0,56,-99.99,,,0.00,Acu-Link.com,2013-02-01 11:03:00,
2013-02-01 06:18:00,44.6,29.9,29.99,West,270,4.7,-999.0,56,-99.99,,,0.00,Acu-Link.com,2013-02-01 11:18:00,
2013-02-01 06:34:00,44.8,30.1,29.99,West,270,4.7,-999.0,56,-99.99,,,0.00,Acu-Link.com,2013-02-01 11:34:00,
2013-02-01 06:49:00,45.1,30.4,29.99,WSW,247,2.7,-999.0,56,-99.99,,,0.00,Acu-Link.com,2013-02-01 11:49:00,
2013-02-01 07:04:00,45.1,30.8,29.99,WSW,247,10.4,-999.0,57,-99.99,,,0.00,Acu-Link.com,2013-02-01 12:04:00,
2013-02-01 07:20:00,45.1,30.8,30.00,WSW,247,4.7,-999.0,57,-99.99,,,0.00,Acu-Link.com,2013-02-01 12:20:00,
2013-02-01 07:35:00,45.1,31.2,30.00,SW,225,5.8,-999.0,58,-99.99,,,0.00,Acu-Link.com,2013-02-01 12:35:00,
2013-02-01 07:50:00,45.9,32.0,30.00,South,180,4.7,-999.0,58,-99.99,,,0.00,Acu-Link.com,2013-02-01 12:50:00,
2013-02-01 08:05:00,46.2,32.2,30.01,SSW,202,5.8,-999.0,58,-99.99,,,0.00,Acu-Link.com,2013-02-01 13:05:00,
2013-02-01 08:21:00,48.2,32.8,30.01,West,270,2.7,-999.0,55,-99.99,,,0.00,Acu-Link.com,2013-02-01 13:21:00,
2013-02-01 08:36:00,48.9,32.5,30.01,West,270,9.9,-999.0,53,-99.99,,,0.00,Acu-Link.com,2013-02-01 13:36:00,
2013-02-01 08:51:00,50.5,31.6,30.01,WSW,247,10.9,-999.0,48,-99.99,,,0.00,Acu-Link.com,2013-02-01 13:51:00,
2013-02-01 09:07:00,52.2,32.1,30.03,SSW,202,9.9,-999.0,46,-99.99,,,0.00,Acu-Link.com,2013-02-01 14:07:00,
2013-02-01 09:22:00,53.2,31.3,30.02,WNW,292,13.0,-999.0,43,-99.99,,,0.00,Acu-Link.com,2013-02-01 14:22:00,
2013-02-01 09:38:00,53.1,31.2,30.03,WNW,292,13.5,-999.0,43,-99.99,,,0.00,Acu-Link.com,2013-02-01 14:38:00,
2013-02-01 09:53:00,52.7,30.8,30.03,West,270,14.5,-999.0,43,-99.99,,,0.00,Acu-Link.com,2013-02-01 14:53:00,
2013-02-01 10:08:00,53.4,30.9,30.02,West,270,12.5,-999.0,42,-99.99,,,0.00,Acu-Link.com,2013-02-01 15:08:00,
2013-02-01 10:23:00,55.2,33.1,30.02,West,270,10.9,-999.0,43,-99.99,,,0.00,Acu-Link.com,2013-02-01 15:23:00,
2013-02-01 10:39:00,55.2,33.1,30.03,West,270,13.5,-999.0,43,-99.99,,,0.00,Acu-Link.com,2013-02-01 15:39:00,
2013-02-01 10:54:00,55.0,33.5,30.02,West,270,9.4,-999.0,44,-99.99,,,0.00,Acu-Link.com,2013-02-01 15:54:00,
2013-02-01 11:09:00,55.2,33.1,30.03,West,270,9.9,-999.0,43,-99.99,,,0.00,Acu-Link.com,2013-02-01 16:09:00,
2013-02-01 11:24:00,56.7,34.5,30.02,West,270,13.0,-999.0,43,-99.99,,,0.00,Acu-Link.com,2013-02-01 16:24:00,
2013-02-01 11:40:00,57.0,33.5,30.02,WNW,292,11.4,-999.0,41,-99.99,,,0.00,Acu-Link.com,2013-02-01 16:40:00,
2013-02-01 11:55:00,57.9,32.5,30.01,West,270,18.6,-999.0,38,-99.99,,,0.00,Acu-Link.com,2013-02-01 16:55:00,
2013-02-01 12:10:00,57.9,32.5,30.01,West,270,15.5,-999.0,38,-99.99,,,0.00,Acu-Link.com,2013-02-01 17:10:00,
2013-02-01 12:25:00,57.7,30.9,30.00,WNW,292,22.2,-999.0,36,-99.99,,,0.00,Acu-Link.com,2013-02-01 17:25:00,
2013-02-01 12:41:00,59.0,30.7,30.01,WNW,292,21.2,-999.0,34,-99.99,,,0.00,Acu-Link.com,2013-02-01 17:41:00,
2013-02-01 12:56:00,58.1,26.8,30.00,West,270,14.5,-999.0,30,-99.99,,,0.00,Acu-Link.com,2013-02-01 17:56:00,
2013-02-01 13:11:00,58.8,29.8,30.01,WNW,292,12.5,-999.0,33,-99.99,,,0.00,Acu-Link.com,2013-02-01 18:11:00,
2013-02-01 13:27:00,58.3,27.0,30.00,West,270,14.5,-999.0,30,-99.99,,,0.00,Acu-Link.com,2013-02-01 18:27:00,
2013-02-01 13:42:00,57.7,25.7,30.00,NW,315,14.5,-999.0,29,-99.99,,,0.00,Acu-Link.com,2013-02-01 18:42:00,
2013-02-01 13:57:00,58.5,26.4,30.00,West,270,11.4,-999.0,29,-99.99,,,0.00,Acu-Link.com,2013-02-01 18:57:00,
2013-02-01 14:12:00,58.8,22.1,30.00,West,270,16.6,-999.0,24,-99.99,,,0.00,Acu-Link.com,2013-02-01 19:12:00,
2013-02-01 14:27:00,58.5,19.8,30.00,WNW,292,12.5,-999.0,22,-99.99,,,0.00,Acu-Link.com,2013-02-01 19:27:00,
2013-02-01 14:43:00,59.4,22.6,30.00,WSW,247,7.8,-999.0,24,-99.99,,,0.00,Acu-Link.com,2013-02-01 19:43:00,
2013-02-01 14:58:00,59.0,19.1,30.00,West,270,9.9,-999.0,21,-99.99,,,0.00,Acu-Link.com,2013-02-01 19:58:00,
2013-02-01 15:13:00,59.0,19.1,30.01,West,270,13.0,-999.0,21,-99.99,,,0.00,Acu-Link.com,2013-02-01 20:13:00,
2013-02-01 15:28:00,58.6,19.9,30.02,WNW,292,8.9,-999.0,22,-99.99,,,0.00,Acu-Link.com,2013-02-01 20:28:00,
2013-02-01 15:43:00,58.3,17.4,30.02,West,270,15.5,-999.0,20,-99.99,,,0.00,Acu-Link.com,2013-02-01 20:43:00,
2013-02-01 15:59:00,57.7,16.9,30.02,West,270,5.3,-999.0,20,-99.99,,,0.00,Acu-Link.com,2013-02-01 20:59:00,
2013-02-01 16:14:00,57.7,16.9,30.02,West,270,8.3,-999.0,20,-99.99,,,0.00,Acu-Link.com,2013-02-01 21:14:00,
2013-02-01 16:29:00,57.2,15.3,30.03,WNW,292,14.0,-999.0,19,-99.99,,,0.00,Acu-Link.com,2013-02-01 21:29:00,
2013-02-01 16:45:00,56.5,18.1,30.03,West,270,9.4,-999.0,22,-99.99,,,0.00,Acu-Link.com,2013-02-01 21:45:00,
2013-02-01 17:00:00,56.3,15.8,30.04,WNW,292,8.9,-999.0,20,-99.99,,,0.00,Acu-Link.com,2013-02-01 22:00:00,
2013-02-01 17:16:00,53.8,15.9,30.05,West,270,6.3,-999.0,22,-99.99,,,0.00,Acu-Link.com,2013-02-01 22:16:00,
2013-02-01 17:31:00,52.5,13.7,30.05,WNW,292,6.8,-999.0,21,-99.99,,,0.00,Acu-Link.com,2013-02-01 22:31:00,
2013-02-01 17:47:00,51.4,14.9,30.06,West,270,5.8,-999.0,23,-99.99,,,0.00,Acu-Link.com,2013-02-01 22:47:00,
2013-02-01 18:02:00,50.4,16.8,30.06,West,270,3.7,-999.0,26,-99.99,,,0.00,Acu-Link.com,2013-02-01 23:02:00,
2013-02-01 18:17:00,49.6,15.2,30.07,West,270,6.3,-999.0,25,-99.99,,,0.00,Acu-Link.com,2013-02-01 23:17:00,
2013-02-01 18:32:00,48.6,16.2,30.08,WNW,292,4.2,-999.0,27,-99.99,,,0.00,Acu-Link.com,2013-02-01 23:32:00,
2013-02-01 18:47:00,46.9,18.6,30.08,West,270,2.7,-999.0,32,-99.99,,,0.00,Acu-Link.com,2013-02-01 23:47:00,
2013-02-01 19:03:00,45.5,20.8,30.09,NNE,22,0.0,-999.0,37,-99.99,,,0.00,Acu-Link.com,2013-02-02 00:03:00,
2013-02-01 19:18:00,42.4,26.0,30.10,West,270,2.7,-999.0,52,-99.99,,,0.00,Acu-Link.com,2013-02-02 00:18:00,
2013-02-01 19:34:00,41.9,23.7,30.10,West,270,2.2,-999.0,48,-99.99,,,0.00,Acu-Link.com,2013-02-02 00:34:00,
2013-02-01 19:49:00,43.7,20.4,30.11,WSW,247,2.7,-999.0,39,-99.99,,,0.00,Acu-Link.com,2013-02-02 00:49:00,
2013-02-01 20:04:00,43.5,19.6,30.11,SW,225,1.1,-999.0,38,-99.99,,,0.00,Acu-Link.com,2013-02-02 01:04:00,
2013-02-01 20:20:00,43.2,23.3,30.11,North,0,0.0,-999.0,45,-99.99,,,0.00,Acu-Link.com,2013-02-02 01:20:00,
2013-02-01 20:35:00,41.7,20.3,30.11,NW,315,2.7,-999.0,42,-99.99,,,0.00,Acu-Link.com,2013-02-02 01:35:00,
2013-02-01 20:50:00,40.6,24.8,30.13,ENE,67,3.2,-999.0,53,-99.99,,,0.00,Acu-Link.com,2013-02-02 01:50:00,
2013-02-01 21:05:00,40.5,25.2,30.13,West,270,0.0,-999.0,54,-99.99,,,0.00,Acu-Link.com,2013-02-02 02:05:00,
2013-02-01 21:21:00,39.2,28.1,30.13,ESE,112,0.0,-999.0,64,-99.99,,,0.00,Acu-Link.com,2013-02-02 02:21:00,
2013-02-01 21:36:00,37.4,29.6,30.14,ESE,112,2.2,-999.0,73,-99.99,,,0.00,Acu-Link.com,2013-02-02 02:36:00,
2013-02-01 21:51:00,36.5,27.0,30.14,ESE,112,0.0,-999.0,68,-99.99,,,0.00,Acu-Link.com,2013-02-02 02:51:00,
2013-02-01 22:07:00,36.1,27.6,30.14,West,270,0.0,-999.0,71,-99.99,,,0.00,Acu-Link.com,2013-02-02 03:07:00,
2013-02-01 22:22:00,34.7,27.9,30.14,ESE,112,0.0,-999.0,76,-99.99,,,0.00,Acu-Link.com,2013-02-02 03:22:00,
2013-02-01 22:38:00,34.7,27.6,30.15,SE,135,0.0,-999.0,75,-99.99,,,0.00,Acu-Link.com,2013-02-02 03:38:00,
2013-02-01 22:53:00,34.5,28.4,30.15,SE,135,0.0,-999.0,78,-99.99,,,0.00,Acu-Link.com,2013-02-02 03:53:00,
2013-02-01 23:08:00,34.7,28.6,30.15,East,90,1.1,-999.0,78,-99.99,,,0.00,Acu-Link.com,2013-02-02 04:08:00,
2013-02-01 23:24:00,34.7,28.9,30.16,ESE,112,0.0,-999.0,79,-99.99,,,0.00,Acu-Link.com,2013-02-02 04:24:00,
2013-02-01 23:39:00,34.3,28.5,30.16,ESE,112,1.7,-999.0,79,-99.99,,,0.00,Acu-Link.com,2013-02-02 04:39:00,
2013-02-01 23:54:00,34.9,29.7,30.16,ENE,67,1.7,-999.0,81,-99.99,,,0.00,Acu-Link.com,2013-02-02 04:54:00,